sensor_id;sensor_type;location;lat;lon;timestamp;P1;durP1;ratioP1;P2;durP2;ratioP2
69319;SDS011;56467;53.502;49.248;2022-09-20T00:00:06;1.95;;;1.40;;
69319;SDS011;56467;53.502;49.248;2022-09-20T00:02:32;1.50;;;1.30;;
69319;SDS011;56467;53.502;49.248;2022-09-20T00:04:58;2.13;;;1.50;;
69319;SDS011;56467;53.502;49.248;2022-09-20T00:07:24;2.00;;;1.50;;
69319;SDS011;56467;53.502;49.248;2022-09-20T00:09:50;2.00;;;1.70;;
69319;SDS011;56467;53.502;49.248;2022-09-20T00:12:15;1.63;;;1.45;;
69319;SDS011;56467;53.502;49.248;2022-09-20T00:14:41;1.92;;;1.50;;
69319;SDS011;56467;53.502;49.248;2022-09-20T00:17:07;1.60;;;1.50;;
69319;SDS011;56467;53.502;49.248;2022-09-20T00:19:34;2.33;;;1.60;;
69319;SDS011;56467;53.502;49.248;2022-09-20T00:22:00;1.60;;;1.50;;
69319;SDS011;56467;53.502;49.248;2022-09-20T00:24:26;2.67;;;1.35;;
69319;SDS011;56467;53.502;49.248;2022-09-20T00:26:51;1.98;;;1.50;;
69319;SDS011;56467;53.502;49.248;2022-09-20T00:29:18;3.58;;;1.50;;
69319;SDS011;56467;53.502;49.248;2022-09-20T00:31:43;1.95;;;1.40;;
69319;SDS011;56467;53.502;49.248;2022-09-20T00:34:10;2.13;;;1.50;;
69319;SDS011;56467;53.502;49.248;2022-09-20T00:36:54;2.13;;;1.40;;
69319;SDS011;56467;53.502;49.248;2022-09-20T00:39:19;2.33;;;1.27;;
69319;SDS011;56467;53.502;49.248;2022-09-20T00:41:45;1.50;;;1.40;;
69319;SDS011;56467;53.502;49.248;2022-09-20T00:47:21;1.77;;;1.50;;
69319;SDS011;56467;53.502;49.248;2022-09-20T00:49:54;1.55;;;1.40;;
69319;SDS011;56467;53.502;49.248;2022-09-20T00:52:23;2.72;;;1.65;;
69319;SDS011;56467;53.502;49.248;2022-09-20T00:54:51;2.72;;;1.50;;
69319;SDS011;56467;53.502;49.248;2022-09-20T00:57:18;1.65;;;1.27;;
69319;SDS011;56467;53.502;49.248;2022-09-20T00:59:44;1.63;;;1.30;;
69319;SDS011;56467;53.502;49.248;2022-09-20T01:02:19;1.88;;;1.30;;
69319;SDS011;56467;53.502;49.248;2022-09-20T01:04:48;1.98;;;1.40;;
69319;SDS011;56467;53.502;49.248;2022-09-20T01:07:15;1.85;;;1.50;;
69319;SDS011;56467;53.502;49.248;2022-09-20T01:09:43;1.40;;;1.30;;
69319;SDS011;56467;53.502;49.248;2022-09-20T01:12:11;1.80;;;1.50;;
69319;SDS011;56467;53.502;49.248;2022-09-20T01:14:39;3.90;;;1.35;;
69319;SDS011;56467;53.502;49.248;2022-09-20T01:17:07;2.97;;;1.40;;
69319;SDS011;56467;53.502;49.248;2022-09-20T01:22:20;1.30;;;1.20;;
69319;SDS011;56467;53.502;49.248;2022-09-20T01:24:54;1.50;;;1.27;;
69319;SDS011;56467;53.502;49.248;2022-09-20T01:27:46;1.48;;;1.33;;
69319;SDS011;56467;53.502;49.248;2022-09-20T01:30:15;1.33;;;1.23;;
69319;SDS011;56467;53.502;49.248;2022-09-20T01:32:57;1.35;;;1.20;;
69319;SDS011;56467;53.502;49.248;2022-09-20T01:35:36;1.98;;;1.40;;
69319;SDS011;56467;53.502;49.248;2022-09-20T01:43:44;2.13;;;1.30;;
69319;SDS011;56467;53.502;49.248;2022-09-20T01:48:58;1.98;;;1.40;;
69319;SDS011;56467;53.502;49.248;2022-09-20T01:54:45;1.45;;;1.20;;
69319;SDS011;56467;53.502;49.248;2022-09-20T02:00:08;1.80;;;1.40;;
69319;SDS011;56467;53.502;49.248;2022-09-20T02:06:07;1.95;;;1.20;;
69319;SDS011;56467;53.502;49.248;2022-09-20T02:17:47;1.92;;;1.30;;
69319;SDS011;56467;53.502;49.248;2022-09-20T02:31:41;1.58;;;1.20;;
69319;SDS011;56467;53.502;49.248;2022-09-20T02:34:22;1.42;;;1.30;;
69319;SDS011;56467;53.502;49.248;2022-09-20T02:37:11;1.40;;;1.30;;
69319;SDS011;56467;53.502;49.248;2022-09-20T02:42:44;1.58;;;1.20;;
69319;SDS011;56467;53.502;49.248;2022-09-20T02:45:25;1.30;;;1.20;;
69319;SDS011;56467;53.502;49.248;2022-09-20T02:48:06;1.52;;;1.30;;
69319;SDS011;56467;53.502;49.248;2022-09-20T02:53:36;1.05;;;1.02;;
69319;SDS011;56467;53.502;49.248;2022-09-20T02:58:59;1.27;;;1.17;;
69319;SDS011;56467;53.502;49.248;2022-09-20T03:04:46;1.98;;;1.38;;
69319;SDS011;56467;53.502;49.248;2022-09-20T03:35:40;1.83;;;1.27;;
69319;SDS011;56467;53.502;49.248;2022-09-20T03:52:02;1.27;;;1.17;;
69319;SDS011;56467;53.502;49.248;2022-09-20T04:03:45;1.70;;;1.25;;
69319;SDS011;56467;53.502;49.248;2022-09-20T04:06:32;2.03;;;1.23;;
69319;SDS011;56467;53.502;49.248;2022-09-20T04:14:42;1.20;;;1.10;;
69319;SDS011;56467;53.502;49.248;2022-09-20T04:17:21;1.30;;;1.17;;
69319;SDS011;56467;53.502;49.248;2022-09-20T04:20:02;1.48;;;1.13;;
69319;SDS011;56467;53.502;49.248;2022-09-20T04:22:37;1.88;;;1.35;;
69319;SDS011;56467;53.502;49.248;2022-09-20T04:28:09;1.35;;;1.25;;
69319;SDS011;56467;53.502;49.248;2022-09-20T04:30:39;1.30;;;1.17;;
69319;SDS011;56467;53.502;49.248;2022-09-20T04:38:41;1.85;;;1.30;;
69319;SDS011;56467;53.502;49.248;2022-09-20T04:47:00;1.77;;;1.40;;
69319;SDS011;56467;53.502;49.248;2022-09-20T04:55:22;1.60;;;1.20;;
69319;SDS011;56467;53.502;49.248;2022-09-20T05:23:50;1.45;;;1.10;;
69319;SDS011;56467;53.502;49.248;2022-09-20T05:26:28;1.50;;;1.20;;
69319;SDS011;56467;53.502;49.248;2022-09-20T05:54:06;1.92;;;1.02;;
69319;SDS011;56467;53.502;49.248;2022-09-20T05:56:59;1.35;;;1.10;;
69319;SDS011;56467;53.502;49.248;2022-09-20T05:59:52;1.50;;;1.10;;
69319;SDS011;56467;53.502;49.248;2022-09-20T06:11:13;2.80;;;1.20;;
69319;SDS011;56467;53.502;49.248;2022-09-20T06:13:59;1.10;;;1.00;;
69319;SDS011;56467;53.502;49.248;2022-09-20T06:19:12;1.20;;;0.85;;
69319;SDS011;56467;53.502;49.248;2022-09-20T06:21:52;2.75;;;1.00;;
69319;SDS011;56467;53.502;49.248;2022-09-20T06:24:28;1.23;;;1.00;;
69319;SDS011;56467;53.502;49.248;2022-09-20T06:26:55;2.30;;;1.08;;
69319;SDS011;56467;53.502;49.248;2022-09-20T06:29:34;2.30;;;0.80;;
69319;SDS011;56467;53.502;49.248;2022-09-20T06:32:02;1.63;;;0.93;;
69319;SDS011;56467;53.502;49.248;2022-09-20T06:34:28;2.17;;;0.90;;
69319;SDS011;56467;53.502;49.248;2022-09-20T06:36:59;1.00;;;0.95;;
69319;SDS011;56467;53.502;49.248;2022-09-20T06:40:26;0.90;;;0.90;;
69319;SDS011;56467;53.502;49.248;2022-09-20T06:43:17;1.05;;;0.95;;
69319;SDS011;56467;53.502;49.248;2022-09-20T06:45:43;0.93;;;0.90;;
69319;SDS011;56467;53.502;49.248;2022-09-20T06:48:09;1.83;;;0.90;;
69319;SDS011;56467;53.502;49.248;2022-09-20T06:50:39;1.88;;;0.93;;
69319;SDS011;56467;53.502;49.248;2022-09-20T06:53:11;1.20;;;0.90;;
69319;SDS011;56467;53.502;49.248;2022-09-20T06:55:41;1.00;;;0.80;;
69319;SDS011;56467;53.502;49.248;2022-09-20T06:58:09;1.90;;;1.05;;
69319;SDS011;56467;53.502;49.248;2022-09-20T07:00:35;0.90;;;0.70;;
69319;SDS011;56467;53.502;49.248;2022-09-20T07:03:02;1.10;;;1.00;;
69319;SDS011;56467;53.502;49.248;2022-09-20T07:05:28;2.58;;;1.17;;
69319;SDS011;56467;53.502;49.248;2022-09-20T07:07:57;2.97;;;1.10;;
69319;SDS011;56467;53.502;49.248;2022-09-20T07:10:27;1.33;;;0.85;;
69319;SDS011;56467;53.502;49.248;2022-09-20T07:12:56;1.88;;;0.80;;
69319;SDS011;56467;53.502;49.248;2022-09-20T07:15:23;1.30;;;0.90;;
69319;SDS011;56467;53.502;49.248;2022-09-20T07:17:49;1.05;;;0.90;;
69319;SDS011;56467;53.502;49.248;2022-09-20T07:20:15;2.42;;;1.00;;
69319;SDS011;56467;53.502;49.248;2022-09-20T07:22:44;1.50;;;0.85;;
69319;SDS011;56467;53.502;49.248;2022-09-20T07:25:10;1.60;;;0.80;;
69319;SDS011;56467;53.502;49.248;2022-09-20T07:27:35;1.45;;;1.00;;
69319;SDS011;56467;53.502;49.248;2022-09-20T07:30:01;1.15;;;0.90;;
69319;SDS011;56467;53.502;49.248;2022-09-20T07:32:28;1.15;;;0.85;;
69319;SDS011;56467;53.502;49.248;2022-09-20T07:34:54;2.40;;;0.98;;
69319;SDS011;56467;53.502;49.248;2022-09-20T07:37:19;2.25;;;0.90;;
69319;SDS011;56467;53.502;49.248;2022-09-20T07:39:45;1.75;;;0.85;;
69319;SDS011;56467;53.502;49.248;2022-09-20T07:42:11;1.48;;;1.05;;
69319;SDS011;56467;53.502;49.248;2022-09-20T07:44:37;1.77;;;0.90;;
69319;SDS011;56467;53.502;49.248;2022-09-20T07:47:06;1.00;;;0.90;;
69319;SDS011;56467;53.502;49.248;2022-09-20T07:49:34;2.35;;;1.00;;
69319;SDS011;56467;53.502;49.248;2022-09-20T07:52:00;1.17;;;1.00;;
69319;SDS011;56467;53.502;49.248;2022-09-20T07:54:27;1.63;;;1.10;;
69319;SDS011;56467;53.502;49.248;2022-09-20T07:56:52;2.97;;;1.30;;
69319;SDS011;56467;53.502;49.248;2022-09-20T07:59:19;1.20;;;1.05;;
69319;SDS011;56467;53.502;49.248;2022-09-20T08:01:45;1.35;;;0.90;;
69319;SDS011;56467;53.502;49.248;2022-09-20T08:04:11;2.60;;;1.30;;
69319;SDS011;56467;53.502;49.248;2022-09-20T08:06:41;2.22;;;1.00;;
69319;SDS011;56467;53.502;49.248;2022-09-20T08:09:08;2.20;;;0.90;;
69319;SDS011;56467;53.502;49.248;2022-09-20T08:11:35;1.58;;;1.00;;
69319;SDS011;56467;53.502;49.248;2022-09-20T08:14:02;2.78;;;1.05;;
69319;SDS011;56467;53.502;49.248;2022-09-20T08:16:28;1.77;;;0.90;;
69319;SDS011;56467;53.502;49.248;2022-09-20T08:18:56;3.85;;;1.00;;
69319;SDS011;56467;53.502;49.248;2022-09-20T08:21:28;2.50;;;1.10;;
69319;SDS011;56467;53.502;49.248;2022-09-20T08:23:55;2.17;;;1.00;;
69319;SDS011;56467;53.502;49.248;2022-09-20T08:26:22;1.02;;;0.90;;
69319;SDS011;56467;53.502;49.248;2022-09-20T08:28:53;0.93;;;0.82;;
69319;SDS011;56467;53.502;49.248;2022-09-20T08:31:21;1.67;;;0.98;;
69319;SDS011;56467;53.502;49.248;2022-09-20T08:33:48;2.85;;;1.08;;
69319;SDS011;56467;53.502;49.248;2022-09-20T08:36:16;1.98;;;1.17;;
69319;SDS011;56467;53.502;49.248;2022-09-20T08:38:44;2.63;;;0.90;;
69319;SDS011;56467;53.502;49.248;2022-09-20T08:43:53;3.65;;;0.95;;
69319;SDS011;56467;53.502;49.248;2022-09-20T08:46:23;1.90;;;0.98;;
69319;SDS011;56467;53.502;49.248;2022-09-20T08:48:53;1.35;;;0.95;;
69319;SDS011;56467;53.502;49.248;2022-09-20T08:51:22;2.45;;;0.90;;
69319;SDS011;56467;53.502;49.248;2022-09-20T08:53:53;2.85;;;0.90;;
69319;SDS011;56467;53.502;49.248;2022-09-20T08:56:21;1.42;;;0.80;;
69319;SDS011;56467;53.502;49.248;2022-09-20T08:58:47;2.33;;;1.02;;
69319;SDS011;56467;53.502;49.248;2022-09-20T09:01:17;1.13;;;0.90;;
69319;SDS011;56467;53.502;49.248;2022-09-20T09:03:49;1.40;;;0.75;;
69319;SDS011;56467;53.502;49.248;2022-09-20T09:06:17;1.95;;;1.08;;
69319;SDS011;56467;53.502;49.248;2022-09-20T09:08:44;1.88;;;0.93;;
69319;SDS011;56467;53.502;49.248;2022-09-20T09:11:13;1.02;;;0.90;;
69319;SDS011;56467;53.502;49.248;2022-09-20T09:13:49;1.63;;;0.88;;
69319;SDS011;56467;53.502;49.248;2022-09-20T09:16:21;2.33;;;0.90;;
69319;SDS011;56467;53.502;49.248;2022-09-20T09:18:48;1.50;;;0.80;;
69319;SDS011;56467;53.502;49.248;2022-09-20T09:21:17;2.88;;;0.98;;
69319;SDS011;56467;53.502;49.248;2022-09-20T09:23:52;1.90;;;0.80;;
69319;SDS011;56467;53.502;49.248;2022-09-20T09:26:23;1.85;;;0.88;;
69319;SDS011;56467;53.502;49.248;2022-09-20T09:31:48;1.80;;;0.85;;
69319;SDS011;56467;53.502;49.248;2022-09-20T09:36:49;1.08;;;1.00;;
69319;SDS011;56467;53.502;49.248;2022-09-20T09:39:16;2.35;;;0.90;;
69319;SDS011;56467;53.502;49.248;2022-09-20T09:41:53;1.35;;;1.10;;
69319;SDS011;56467;53.502;49.248;2022-09-20T09:44:26;1.13;;;0.82;;
69319;SDS011;56467;53.502;49.248;2022-09-20T09:46:54;1.75;;;0.90;;
69319;SDS011;56467;53.502;49.248;2022-09-20T09:49:24;2.97;;;0.80;;
69319;SDS011;56467;53.502;49.248;2022-09-20T09:54:26;2.88;;;1.00;;
69319;SDS011;56467;53.502;49.248;2022-09-20T10:00:02;2.72;;;1.00;;
69319;SDS011;56467;53.502;49.248;2022-09-20T10:05:49;1.67;;;0.90;;
69319;SDS011;56467;53.502;49.248;2022-09-20T10:25:42;1.70;;;1.00;;
69319;SDS011;56467;53.502;49.248;2022-09-20T10:28:35;0.88;;;0.88;;
69319;SDS011;56467;53.502;49.248;2022-09-20T10:34:09;2.47;;;0.90;;
69319;SDS011;56467;53.502;49.248;2022-09-20T10:36:41;1.20;;;1.00;;
69319;SDS011;56467;53.502;49.248;2022-09-20T10:39:26;3.00;;;1.02;;
69319;SDS011;56467;53.502;49.248;2022-09-20T10:42:02;2.13;;;0.90;;
69319;SDS011;56467;53.502;49.248;2022-09-20T10:47:33;2.40;;;1.08;;
69319;SDS011;56467;53.502;49.248;2022-09-20T11:03:55;1.35;;;0.95;;
69319;SDS011;56467;53.502;49.248;2022-09-20T11:09:13;1.35;;;1.00;;
69319;SDS011;56467;53.502;49.248;2022-09-20T11:11:48;3.35;;;1.30;;
69319;SDS011;56467;53.502;49.248;2022-09-20T11:14:20;2.97;;;1.00;;
69319;SDS011;56467;53.502;49.248;2022-09-20T11:17:14;1.67;;;0.98;;
69319;SDS011;56467;53.502;49.248;2022-09-20T11:22:37;2.03;;;1.02;;
69319;SDS011;56467;53.502;49.248;2022-09-20T11:27:58;1.35;;;1.00;;
69319;SDS011;56467;53.502;49.248;2022-09-20T11:30:35;1.08;;;0.98;;
69319;SDS011;56467;53.502;49.248;2022-09-20T11:35:51;1.30;;;1.10;;
69319;SDS011;56467;53.502;49.248;2022-09-20T11:41:14;1.98;;;1.10;;
69319;SDS011;56467;53.502;49.248;2022-09-20T11:43:41;4.30;;;1.23;;
69319;SDS011;56467;53.502;49.248;2022-09-20T11:46:14;2.08;;;1.00;;
69319;SDS011;56467;53.502;49.248;2022-09-20T11:49:02;1.27;;;0.95;;
69319;SDS011;56467;53.502;49.248;2022-09-20T11:51:49;1.85;;;0.90;;
69319;SDS011;56467;53.502;49.248;2022-09-20T11:56:54;0.80;;;0.80;;
69319;SDS011;56467;53.502;49.248;2022-09-20T12:01:53;3.15;;;0.98;;
69319;SDS011;56467;53.502;49.248;2022-09-20T12:04:23;1.48;;;1.10;;
69319;SDS011;56467;53.502;49.248;2022-09-20T12:09:41;1.65;;;1.00;;
69319;SDS011;56467;53.502;49.248;2022-09-20T12:12:22;3.03;;;1.10;;
69319;SDS011;56467;53.502;49.248;2022-09-20T12:14:55;1.77;;;1.17;;
69319;SDS011;56467;53.502;49.248;2022-09-20T12:52:34;3.80;;;1.20;;
69319;SDS011;56467;53.502;49.248;2022-09-20T12:58:04;3.00;;;1.40;;
69319;SDS011;56467;53.502;49.248;2022-09-20T13:00:37;3.45;;;1.42;;
69319;SDS011;56467;53.502;49.248;2022-09-20T13:16:58;1.70;;;1.20;;
69319;SDS011;56467;53.502;49.248;2022-09-20T13:19:30;2.17;;;1.40;;
69319;SDS011;56467;53.502;49.248;2022-09-20T13:24:41;3.88;;;1.30;;
69319;SDS011;56467;53.502;49.248;2022-09-20T13:27:17;1.80;;;1.50;;
69319;SDS011;56467;53.502;49.248;2022-09-20T13:29:47;9.70;;;5.80;;
69319;SDS011;56467;53.502;49.248;2022-09-20T13:32:16;12.35;;;7.25;;
69319;SDS011;56467;53.502;49.248;2022-09-20T13:34:43;11.23;;;6.30;;
69319;SDS011;56467;53.502;49.248;2022-09-20T13:37:15;11.02;;;6.70;;
69319;SDS011;56467;53.502;49.248;2022-09-20T13:39:52;8.82;;;5.20;;
69319;SDS011;56467;53.502;49.248;2022-09-20T13:42:19;9.07;;;5.03;;
69319;SDS011;56467;53.502;49.248;2022-09-20T13:44:45;8.35;;;4.70;;
69319;SDS011;56467;53.502;49.248;2022-09-20T13:47:47;8.43;;;4.68;;
69319;SDS011;56467;53.502;49.248;2022-09-20T13:52:46;8.07;;;4.37;;
69319;SDS011;56467;53.502;49.248;2022-09-20T13:55:35;8.23;;;4.65;;
69319;SDS011;56467;53.502;49.248;2022-09-20T13:58:05;9.48;;;4.25;;
69319;SDS011;56467;53.502;49.248;2022-09-20T14:00:32;8.00;;;4.60;;
69319;SDS011;56467;53.502;49.248;2022-09-20T14:03:02;7.70;;;4.18;;
69319;SDS011;56467;53.502;49.248;2022-09-20T14:05:29;7.68;;;4.70;;
69319;SDS011;56467;53.502;49.248;2022-09-20T14:07:55;7.57;;;4.55;;
69319;SDS011;56467;53.502;49.248;2022-09-20T14:10:25;7.53;;;4.18;;
69319;SDS011;56467;53.502;49.248;2022-09-20T14:13:02;6.97;;;4.50;;
69319;SDS011;56467;53.502;49.248;2022-09-20T14:15:38;7.18;;;4.00;;
69319;SDS011;56467;53.502;49.248;2022-09-20T14:18:15;7.00;;;4.30;;
69319;SDS011;56467;53.502;49.248;2022-09-20T14:20:45;9.63;;;4.27;;
69319;SDS011;56467;53.502;49.248;2022-09-20T14:23:21;6.57;;;3.90;;
69319;SDS011;56467;53.502;49.248;2022-09-20T14:28:30;6.65;;;4.28;;
69319;SDS011;56467;53.502;49.248;2022-09-20T14:31:03;9.50;;;4.10;;
69319;SDS011;56467;53.502;49.248;2022-09-20T14:33:32;6.72;;;4.03;;
69319;SDS011;56467;53.502;49.248;2022-09-20T14:36:03;8.07;;;4.57;;
69319;SDS011;56467;53.502;49.248;2022-09-20T14:38:34;6.50;;;3.90;;
69319;SDS011;56467;53.502;49.248;2022-09-20T14:41:00;6.00;;;3.67;;
69319;SDS011;56467;53.502;49.248;2022-09-20T14:43:28;6.53;;;3.97;;
69319;SDS011;56467;53.502;49.248;2022-09-20T14:45:57;5.35;;;3.70;;
69319;SDS011;56467;53.502;49.248;2022-09-20T14:53:40;7.18;;;3.60;;
69319;SDS011;56467;53.502;49.248;2022-09-20T14:56:09;5.43;;;3.65;;
69319;SDS011;56467;53.502;49.248;2022-09-20T15:04:38;6.28;;;3.63;;
69319;SDS011;56467;53.502;49.248;2022-09-20T15:07:09;6.35;;;3.70;;
69319;SDS011;56467;53.502;49.248;2022-09-20T15:09:38;6.38;;;4.07;;
69319;SDS011;56467;53.502;49.248;2022-09-20T15:12:10;5.82;;;3.50;;
69319;SDS011;56467;53.502;49.248;2022-09-20T15:14:38;6.47;;;3.50;;
69319;SDS011;56467;53.502;49.248;2022-09-20T15:17:14;6.25;;;3.58;;
69319;SDS011;56467;53.502;49.248;2022-09-20T15:19:47;4.78;;;3.33;;
69319;SDS011;56467;53.502;49.248;2022-09-20T15:22:14;5.57;;;3.50;;
69319;SDS011;56467;53.502;49.248;2022-09-20T15:24:40;5.82;;;3.42;;
69319;SDS011;56467;53.502;49.248;2022-09-20T15:27:08;7.25;;;3.38;;
69319;SDS011;56467;53.502;49.248;2022-09-20T15:29:36;5.70;;;3.40;;
69319;SDS011;56467;53.502;49.248;2022-09-20T15:32:02;5.20;;;3.40;;
69319;SDS011;56467;53.502;49.248;2022-09-20T15:34:30;6.30;;;3.58;;
69319;SDS011;56467;53.502;49.248;2022-09-20T15:36:56;5.70;;;3.40;;
69319;SDS011;56467;53.502;49.248;2022-09-20T15:39:22;5.80;;;3.50;;
69319;SDS011;56467;53.502;49.248;2022-09-20T15:41:50;5.88;;;3.35;;
69319;SDS011;56467;53.502;49.248;2022-09-20T15:44:17;5.25;;;3.30;;
69319;SDS011;56467;53.502;49.248;2022-09-20T15:46:43;5.43;;;3.28;;
69319;SDS011;56467;53.502;49.248;2022-09-20T15:49:10;5.53;;;3.38;;
69319;SDS011;56467;53.502;49.248;2022-09-20T15:51:36;4.30;;;2.95;;
69319;SDS011;56467;53.502;49.248;2022-09-20T15:54:03;5.80;;;3.17;;
69319;SDS011;56467;53.502;49.248;2022-09-20T15:56:31;5.18;;;3.33;;
69319;SDS011;56467;53.502;49.248;2022-09-20T15:58:59;8.70;;;3.42;;
69319;SDS011;56467;53.502;49.248;2022-09-20T16:01:28;4.82;;;2.97;;
69319;SDS011;56467;53.502;49.248;2022-09-20T16:03:54;5.03;;;3.10;;
69319;SDS011;56467;53.502;49.248;2022-09-20T16:06:21;4.45;;;3.00;;
69319;SDS011;56467;53.502;49.248;2022-09-20T16:08:48;4.43;;;3.10;;
69319;SDS011;56467;53.502;49.248;2022-09-20T16:11:14;6.25;;;3.30;;
69319;SDS011;56467;53.502;49.248;2022-09-20T16:13:44;4.60;;;2.88;;
69319;SDS011;56467;53.502;49.248;2022-09-20T16:16:11;5.07;;;3.03;;
69319;SDS011;56467;53.502;49.248;2022-09-20T16:18:37;4.53;;;2.95;;
69319;SDS011;56467;53.502;49.248;2022-09-20T16:21:21;4.55;;;2.90;;
69319;SDS011;56467;53.502;49.248;2022-09-20T16:23:51;6.28;;;3.30;;
69319;SDS011;56467;53.502;49.248;2022-09-20T16:26:19;5.18;;;2.92;;
69319;SDS011;56467;53.502;49.248;2022-09-20T16:28:45;4.82;;;3.15;;
69319;SDS011;56467;53.502;49.248;2022-09-20T16:31:29;5.45;;;3.13;;
69319;SDS011;56467;53.502;49.248;2022-09-20T16:34:01;4.55;;;2.90;;
69319;SDS011;56467;53.502;49.248;2022-09-20T16:36:32;5.10;;;3.00;;
69319;SDS011;56467;53.502;49.248;2022-09-20T16:38:58;4.68;;;2.88;;
69319;SDS011;56467;53.502;49.248;2022-09-20T16:41:26;4.60;;;2.80;;
69319;SDS011;56467;53.502;49.248;2022-09-20T16:43:52;3.63;;;2.63;;
69319;SDS011;56467;53.502;49.248;2022-09-20T16:46:19;4.20;;;2.80;;
69319;SDS011;56467;53.502;49.248;2022-09-20T16:48:46;4.45;;;2.78;;
69319;SDS011;56467;53.502;49.248;2022-09-20T16:51:21;5.17;;;2.80;;
69319;SDS011;56467;53.502;49.248;2022-09-20T16:53:49;3.65;;;2.65;;
69319;SDS011;56467;53.502;49.248;2022-09-20T16:56:19;5.88;;;3.05;;
69319;SDS011;56467;53.502;49.248;2022-09-20T16:58:47;3.92;;;2.72;;
69319;SDS011;56467;53.502;49.248;2022-09-20T17:01:13;4.25;;;2.70;;
69319;SDS011;56467;53.502;49.248;2022-09-20T17:03:40;4.25;;;2.88;;
69319;SDS011;56467;53.502;49.248;2022-09-20T17:06:07;3.72;;;2.60;;
69319;SDS011;56467;53.502;49.248;2022-09-20T17:08:33;3.78;;;2.72;;
69319;SDS011;56467;53.502;49.248;2022-09-20T17:11:11;3.50;;;2.60;;
69319;SDS011;56467;53.502;49.248;2022-09-20T17:13:39;3.58;;;2.53;;
69319;SDS011;56467;53.502;49.248;2022-09-20T17:16:28;3.70;;;2.50;;
69319;SDS011;56467;53.502;49.248;2022-09-20T17:19:02;3.72;;;2.58;;
69319;SDS011;56467;53.502;49.248;2022-09-20T17:21:40;3.42;;;2.47;;
69319;SDS011;56467;53.502;49.248;2022-09-20T17:24:08;3.70;;;2.63;;
69319;SDS011;56467;53.502;49.248;2022-09-20T17:26:35;3.45;;;2.60;;
69319;SDS011;56467;53.502;49.248;2022-09-20T17:29:03;5.07;;;2.50;;
69319;SDS011;56467;53.502;49.248;2022-09-20T17:31:31;3.30;;;2.30;;
69319;SDS011;56467;53.502;49.248;2022-09-20T17:33:59;3.00;;;2.40;;
69319;SDS011;56467;53.502;49.248;2022-09-20T17:36:32;4.55;;;2.65;;
69319;SDS011;56467;53.502;49.248;2022-09-20T17:39:00;3.05;;;2.58;;
69319;SDS011;56467;53.502;49.248;2022-09-20T17:41:27;4.85;;;2.47;;
69319;SDS011;56467;53.502;49.248;2022-09-20T17:43:57;3.50;;;2.47;;
69319;SDS011;56467;53.502;49.248;2022-09-20T17:46:25;4.30;;;2.47;;
69319;SDS011;56467;53.502;49.248;2022-09-20T17:48:56;3.45;;;2.50;;
69319;SDS011;56467;53.502;49.248;2022-09-20T17:51:26;3.78;;;2.45;;
69319;SDS011;56467;53.502;49.248;2022-09-20T17:53:53;4.35;;;2.67;;
69319;SDS011;56467;53.502;49.248;2022-09-20T17:56:22;3.45;;;2.47;;
69319;SDS011;56467;53.502;49.248;2022-09-20T17:58:59;3.28;;;2.40;;
69319;SDS011;56467;53.502;49.248;2022-09-20T18:01:27;4.22;;;2.40;;
69319;SDS011;56467;53.502;49.248;2022-09-20T18:03:57;3.60;;;2.42;;
69319;SDS011;56467;53.502;49.248;2022-09-20T18:06:31;4.43;;;2.60;;
69319;SDS011;56467;53.502;49.248;2022-09-20T18:09:06;3.50;;;2.30;;
69319;SDS011;56467;53.502;49.248;2022-09-20T18:11:35;3.42;;;2.50;;
69319;SDS011;56467;53.502;49.248;2022-09-20T18:14:09;3.03;;;2.50;;
69319;SDS011;56467;53.502;49.248;2022-09-20T18:16:35;4.10;;;2.40;;
69319;SDS011;56467;53.502;49.248;2022-09-20T18:19:02;3.53;;;2.60;;
69319;SDS011;56467;53.502;49.248;2022-09-20T18:21:30;3.40;;;2.38;;
69319;SDS011;56467;53.502;49.248;2022-09-20T18:23:59;3.53;;;2.35;;
69319;SDS011;56467;53.502;49.248;2022-09-20T18:26:29;3.05;;;2.13;;
69319;SDS011;56467;53.502;49.248;2022-09-20T18:31:34;3.00;;;2.40;;
69319;SDS011;56467;53.502;49.248;2022-09-20T18:34:11;3.47;;;2.70;;
69319;SDS011;56467;53.502;49.248;2022-09-20T18:36:42;2.83;;;2.33;;
69319;SDS011;56467;53.502;49.248;2022-09-20T18:39:10;3.03;;;2.30;;
69319;SDS011;56467;53.502;49.248;2022-09-20T18:41:37;3.22;;;2.40;;
69319;SDS011;56467;53.502;49.248;2022-09-20T18:44:05;3.58;;;2.42;;
69319;SDS011;56467;53.502;49.248;2022-09-20T18:46:32;3.08;;;2.20;;
69319;SDS011;56467;53.502;49.248;2022-09-20T18:49:03;3.25;;;2.38;;
69319;SDS011;56467;53.502;49.248;2022-09-20T18:51:32;3.05;;;2.50;;
69319;SDS011;56467;53.502;49.248;2022-09-20T18:53:58;3.00;;;2.35;;
69319;SDS011;56467;53.502;49.248;2022-09-20T18:56:27;3.30;;;2.10;;
69319;SDS011;56467;53.502;49.248;2022-09-20T18:58:55;2.53;;;2.20;;
69319;SDS011;56467;53.502;49.248;2022-09-20T19:18:01;3.75;;;2.50;;
69319;SDS011;56467;53.502;49.248;2022-09-20T19:26:05;2.72;;;2.17;;
69319;SDS011;56467;53.502;49.248;2022-09-20T19:28:35;3.08;;;2.25;;
69319;SDS011;56467;53.502;49.248;2022-09-20T19:31:01;3.58;;;2.50;;
69319;SDS011;56467;53.502;49.248;2022-09-20T19:33:27;3.33;;;2.30;;
69319;SDS011;56467;53.502;49.248;2022-09-20T19:35:53;3.00;;;2.03;;
69319;SDS011;56467;53.502;49.248;2022-09-20T19:43:55;3.38;;;2.53;;
69319;SDS011;56467;53.502;49.248;2022-09-20T19:46:38;2.55;;;2.25;;
69319;SDS011;56467;53.502;49.248;2022-09-20T19:51:39;3.72;;;2.05;;
69319;SDS011;56467;53.502;49.248;2022-09-20T19:54:10;2.75;;;2.22;;
69319;SDS011;56467;53.502;49.248;2022-09-20T19:56:42;2.45;;;2.03;;
69319;SDS011;56467;53.502;49.248;2022-09-20T19:59:17;2.60;;;2.20;;
69319;SDS011;56467;53.502;49.248;2022-09-20T20:01:45;2.63;;;2.10;;
69319;SDS011;56467;53.502;49.248;2022-09-20T20:04:11;2.75;;;2.20;;
69319;SDS011;56467;53.502;49.248;2022-09-20T20:06:41;3.00;;;2.20;;
69319;SDS011;56467;53.502;49.248;2022-09-20T20:15:13;2.63;;;2.13;;
69319;SDS011;56467;53.502;49.248;2022-09-20T20:20:50;3.13;;;2.17;;
69319;SDS011;56467;53.502;49.248;2022-09-20T20:26:17;2.63;;;2.15;;
69319;SDS011;56467;53.502;49.248;2022-09-20T20:28:45;2.97;;;2.15;;
69319;SDS011;56467;53.502;49.248;2022-09-20T20:31:12;2.92;;;2.10;;
69319;SDS011;56467;53.502;49.248;2022-09-20T20:33:38;2.63;;;2.17;;
69319;SDS011;56467;53.502;49.248;2022-09-20T20:36:04;2.85;;;2.33;;
69319;SDS011;56467;53.502;49.248;2022-09-20T20:38:35;2.70;;;2.10;;
69319;SDS011;56467;53.502;49.248;2022-09-20T20:41:09;2.53;;;1.95;;
69319;SDS011;56467;53.502;49.248;2022-09-20T20:43:37;2.53;;;1.95;;
69319;SDS011;56467;53.502;49.248;2022-09-20T20:46:05;3.08;;;2.20;;
69319;SDS011;56467;53.502;49.248;2022-09-20T20:48:32;3.35;;;2.13;;
69319;SDS011;56467;53.502;49.248;2022-09-20T20:51:02;3.38;;;2.47;;
69319;SDS011;56467;53.502;49.248;2022-09-20T20:53:34;2.78;;;2.10;;
69319;SDS011;56467;53.502;49.248;2022-09-20T20:56:08;2.78;;;2.33;;
69319;SDS011;56467;53.502;49.248;2022-09-20T20:58:37;2.88;;;2.25;;
69319;SDS011;56467;53.502;49.248;2022-09-20T21:01:21;2.60;;;2.17;;
69319;SDS011;56467;53.502;49.248;2022-09-20T21:03:53;3.28;;;2.30;;
69319;SDS011;56467;53.502;49.248;2022-09-20T21:06:20;2.95;;;2.20;;
69319;SDS011;56467;53.502;49.248;2022-09-20T21:08:48;3.25;;;2.33;;
69319;SDS011;56467;53.502;49.248;2022-09-20T21:11:16;3.67;;;2.10;;
69319;SDS011;56467;53.502;49.248;2022-09-20T21:13:48;4.05;;;2.45;;
69319;SDS011;56467;53.502;49.248;2022-09-20T21:16:19;3.10;;;2.10;;
69319;SDS011;56467;53.502;49.248;2022-09-20T21:18:47;2.92;;;2.25;;
69319;SDS011;56467;53.502;49.248;2022-09-20T21:21:21;3.20;;;2.25;;